Cowan, Indiana
Current Conditions -  °F | °C
As of 7:10 PM on Sunday 25 Jan 2015 (Local Time) from KMIE Reporting Station
Light Snow Light Snow  
Wind Chill:   Ceiling: 1300
Heat Index: 23°   Visibility: 2mi
Dew Point: 20°   Wind: 17mph
Humidity: 88%   Direction: 50°NE
Pressure: 29.78"   Gusts: 28mph
Location:  40.1286°N, 85.3767°W
Report Text: KMIE 260010Z 05015G24KT 2SM -SN BR BKN013 OVC022 M05/M07 A2978 RMK AO2 PK WND 06027/2358 P0000 T10501067
Loading
Personal Weather Stations






























Interactive Weather Map New forecast layout! Learn more

10-Day Weather Forecast

Advertisements
Track Severe Weather on mobile